Hillsdale, Michigan
Current Conditions -  °F | °C
As of 7:14 AM on Friday 28 Nov 2014 (Local Time) from KJYM Reporting Station
Overcast Overcast  
Wind Chill: 19°   Ceiling: 1700
Heat Index: 19°   Visibility: 10mi
Dew Point: 15°   Wind: 0mph
Humidity: 84%   Direction: NA
Pressure: 30.32"   Gusts: NA
Location:  41.92°N, 84.63°W
Report Text: KJYM 281214Z AUTO 00000KT 10SM BKN017 OVC037 M07/M10 A3032 RMK AO2 T10741097
Loading
Personal Weather Stations






























Interactive Weather Map New forecast layout! Learn more

10-Day Weather Forecast

Advertisements
Track Severe Weather on mobile